Amity Harbor, New York
Current Conditions -  °F | °C
As of 8:53 AM on Wednesday 28 Jan 2015 (Local Time) from KFRG Reporting Station
Clear Clear  
Wind Chill: -13°   Ceiling: Unl
Heat Index: -6°   Visibility: 10mi
Dew Point: -16°   Wind: 14mph
Humidity: 46%   Direction: 340°NNW
Pressure: 30.01"   Gusts: 21mph
Location:  40.6858°N, 73.4152°W
Report Text: KFRG 281353Z 34012G18KT 10SM CLR M06/M16 A3001 RMK AO2 SLP164 T10611161 $
Loading
Personal Weather Stations






























Interactive Weather Map New forecast layout! Learn more

10-Day Weather Forecast

Advertisements
Track Severe Weather on mobile